Time;durP1;ratioP1;P1;durP2;ratioP2;P2;SDS_P1;SDS_P2;PMS_P1;PMS_P2;Temp;Humidity;BMP_temperature;BMP_pressure;BME280_temperature;BME280_humidity;BME280_pressure;Samples;Min_cycle;Max_cycle;Signal;HPM_P1;HPM_P2
2024/01/28 00:00:18;;;;;;;19.83;11.10;;;4.20;99.90;;;;;;4999050;28;20272;-75
2024/01/28 00:02:44;;;;;;;20.92;9.68;;;4.20;99.90;;;;;;5007440;28;20221;-75
2024/01/28 00:05:13;;;;;;;25.67;10.30;;;4.30;99.90;;;;;;5011487;28;20224;-74
2024/01/28 00:07:40;;;;;;;30.75;9.80;;;4.30;99.90;;;;;;4996754;28;20210;-75
2024/01/28 00:10:09;;;;;;;21.95;10.65;;;4.40;99.90;;;;;;5008523;28;20201;-76
2024/01/28 00:12:36;;;;;;;25.05;11.40;;;4.40;99.90;;;;;;5008097;28;20304;-75
2024/01/28 00:15:06;;;;;;;29.27;10.80;;;4.40;99.90;;;;;;4999523;28;20206;-76
2024/01/28 00:17:33;;;;;;;19.70;10.13;;;4.30;99.90;;;;;;5007720;28;20208;-75
2024/01/28 00:20:00;;;;;;;17.75;9.25;;;4.40;99.90;;;;;;5003808;28;20201;-75
2024/01/28 00:22:29;;;;;;;23.80;12.02;;;4.30;99.90;;;;;;4998588;28;20229;-75
2024/01/28 00:24:56;;;;;;;19.27;10.10;;;4.30;99.90;;;;;;5006105;28;20198;-76
2024/01/28 00:27:23;;;;;;;20.20;10.27;;;4.20;99.90;;;;;;5005360;28;20210;-75
2024/01/28 00:29:50;;;;;;;18.48;9.57;;;4.20;99.90;;;;;;5005502;28;20194;-76
2024/01/28 00:32:20;;;;;;;21.50;9.35;;;4.30;99.90;;;;;;5009955;28;20636;-76
2024/01/28 00:34:47;;;;;;;18.98;8.80;;;4.30;99.90;;;;;;5001386;28;20241;-76
2024/01/28 00:37:14;;;;;;;25.40;10.20;;;4.20;99.90;;;;;;5004407;28;20267;-76
2024/01/28 00:39:41;;;;;;;16.10;10.25;;;4.20;99.90;;;;;;5003744;28;20206;-76
2024/01/28 00:42:08;;;;;;;32.25;12.45;;;4.10;99.90;;;;;;5007504;28;20597;-75
2024/01/28 00:44:35;;;;;;;22.88;11.10;;;4.10;99.90;;;;;;4996860;28;20206;-74
2024/01/28 00:47:02;;;;;;;22.42;12.43;;;4.10;99.90;;;;;;5008548;28;20212;-78
2024/01/28 00:49:31;;;;;;;18.77;11.50;;;4.10;99.90;;;;;;5008468;28;20197;-74
2024/01/28 00:51:58;;;;;;;27.13;11.88;;;4.00;99.90;;;;;;5013380;28;20221;-77
2024/01/28 00:54:25;;;;;;;23.38;10.77;;;3.90;99.90;;;;;;4999403;28;20205;-75
2024/01/28 00:56:53;;;;;;;32.92;10.50;;;3.90;99.90;;;;;;5004316;28;20296;-75
2024/01/28 00:59:20;;;;;;;17.42;10.43;;;3.80;99.90;;;;;;5008763;28;20213;-74
2024/01/28 01:01:46;;;;;;;22.33;10.65;;;3.70;99.90;;;;;;5010499;28;20209;-74
2024/01/28 01:04:14;;;;;;;22.45;10.80;;;3.70;99.90;;;;;;5010273;28;20229;-76
2024/01/28 01:06:44;;;;;;;22.38;12.45;;;3.70;99.90;;;;;;5007881;28;20214;-75
2024/01/28 01:09:11;;;;;;;17.63;9.90;;;3.80;99.90;;;;;;5005877;28;20300;-76
2024/01/28 01:11:38;;;;;;;25.20;11.48;;;3.70;99.90;;;;;;5003335;28;20646;-75
2024/01/28 01:14:05;;;;;;;30.20;10.60;;;3.70;99.90;;;;;;5008605;28;20245;-75
2024/01/28 01:16:32;;;;;;;25.60;12.60;;;3.70;99.90;;;;;;5002322;28;20261;-75
2024/01/28 01:18:59;;;;;;;29.00;13.48;;;3.60;99.90;;;;;;5005369;28;20295;-74
2024/01/28 01:21:26;;;;;;;25.92;11.40;;;3.60;99.90;;;;;;5007079;28;20209;-76
2024/01/28 01:23:54;;;;;;;23.17;11.23;;;3.50;99.90;;;;;;5012398;28;20304;-75
2024/01/28 01:26:21;;;;;;;27.83;10.75;;;3.50;99.90;;;;;;5009372;28;20201;-75
2024/01/28 01:28:50;;;;;;;18.38;11.95;;;3.50;99.90;;;;;;5003329;28;20277;-75
2024/01/28 01:31:17;;;;;;;21.20;10.82;;;3.40;99.90;;;;;;5014270;28;20221;-76
2024/01/28 01:33:45;;;;;;;19.33;11.50;;;3.40;99.90;;;;;;5006683;28;20245;-75
2024/01/28 01:36:14;;;;;;;25.95;12.80;;;3.40;99.90;;;;;;5015720;28;20648;-75
2024/01/28 01:38:41;;;;;;;23.38;11.85;;;3.30;99.90;;;;;;5013397;28;20193;-75
2024/01/28 01:41:10;;;;;;;18.80;12.05;;;3.30;99.90;;;;;;5012665;28;20331;-75
2024/01/28 01:43:49;;;;;;;30.00;12.57;;;3.20;99.90;;;;;;5012014;28;20233;-74
2024/01/28 01:46:16;;;;;;;28.77;12.55;;;3.20;99.90;;;;;;5003844;28;20279;-74
2024/01/28 01:48:43;;;;;;;30.85;13.25;;;3.30;99.90;;;;;;4995847;28;20206;-76
2024/01/28 01:51:11;;;;;;;28.38;12.95;;;3.10;99.90;;;;;;5003621;28;20688;-75
2024/01/28 01:53:39;;;;;;;22.75;12.02;;;3.20;99.90;;;;;;4995857;28;20648;-75
2024/01/28 01:56:07;;;;;;;20.75;12.35;;;3.20;99.90;;;;;;4996412;28;20207;-75
2024/01/28 01:58:36;;;;;;;29.08;13.25;;;3.00;99.90;;;;;;4998502;28;20206;-74
2024/01/28 02:01:04;;;;;;;23.42;12.93;;;3.00;99.90;;;;;;4996388;28;20198;-75
2024/01/28 02:03:30;;;;;;;26.50;12.30;;;3.00;99.90;;;;;;5008546;28;20225;-75
2024/01/28 02:05:58;;;;;;;26.48;14.30;;;3.00;99.90;;;;;;5002141;28;20275;-75
2024/01/28 02:08:26;;;;;;;27.15;12.77;;;3.00;99.90;;;;;;5007400;28;20202;-77
2024/01/28 02:10:53;;;;;;;23.08;12.98;;;3.00;99.90;;;;;;5001078;28;20298;-76
2024/01/28 02:13:20;;;;;;;20.95;13.30;;;2.90;99.90;;;;;;4996266;28;20735;-75
2024/01/28 02:15:48;;;;;;;24.52;14.00;;;2.80;99.90;;;;;;4999470;28;20255;-76
2024/01/28 02:18:15;;;;;;;29.67;14.77;;;2.90;99.90;;;;;;5004457;28;20221;-75
2024/01/28 02:20:42;;;;;;;21.30;13.43;;;2.90;99.90;;;;;;5004858;28;20228;-74
2024/01/28 02:23:10;;;;;;;17.80;14.43;;;3.00;99.90;;;;;;5008562;28;20640;-74
2024/01/28 02:25:38;;;;;;;20.83;12.25;;;3.00;99.90;;;;;;5008306;28;20205;-75
2024/01/28 02:28:05;;;;;;;29.42;13.77;;;3.00;99.90;;;;;;5011220;28;20209;-75
2024/01/28 02:30:33;;;;;;;40.08;16.50;;;3.00;99.90;;;;;;5004887;28;20214;-74
2024/01/28 02:33:00;;;;;;;28.08;14.75;;;2.90;99.90;;;;;;4997764;28;20217;-76
2024/01/28 02:35:27;;;;;;;27.77;14.45;;;2.80;99.90;;;;;;5003784;28;20247;-75
2024/01/28 02:37:54;;;;;;;34.88;16.02;;;2.80;99.90;;;;;;5007957;28;20248;-76
2024/01/28 02:40:21;;;;;;;35.60;16.05;;;2.70;99.90;;;;;;5011314;28;20215;-75
2024/01/28 02:42:49;;;;;;;37.40;16.35;;;2.80;99.90;;;;;;4999158;28;20276;-74
2024/01/28 02:45:19;;;;;;;35.38;16.83;;;2.70;99.90;;;;;;4996345;28;20202;-76
2024/01/28 02:47:46;;;;;;;31.73;17.38;;;2.70;99.90;;;;;;5013541;28;20205;-75
2024/01/28 02:50:13;;;;;;;34.70;18.70;;;2.70;99.90;;;;;;5005037;28;20202;-76
2024/01/28 02:52:40;;;;;;;33.25;17.80;;;2.60;99.90;;;;;;5006227;28;20221;-75
2024/01/28 02:55:08;;;;;;;28.30;16.08;;;2.60;99.90;;;;;;5007832;28;20206;-76
2024/01/28 02:57:35;;;;;;;33.42;18.80;;;2.60;99.90;;;;;;5005166;28;20626;-75
2024/01/28 03:00:04;;;;;;;26.70;17.33;;;2.60;99.90;;;;;;5011858;28;20209;-75
2024/01/28 03:02:31;;;;;;;30.50;15.85;;;2.70;99.90;;;;;;5009914;28;20313;-74
2024/01/28 03:04:58;;;;;;;26.60;16.55;;;2.70;99.90;;;;;;5001866;28;20222;-75
2024/01/28 03:07:25;;;;;;;34.13;17.73;;;2.60;99.90;;;;;;5002396;28;20260;-75
2024/01/28 03:09:52;;;;;;;38.47;17.70;;;2.60;99.90;;;;;;4998818;28;20715;-74
2024/01/28 03:12:19;;;;;;;31.45;18.13;;;2.60;99.90;;;;;;4996392;28;20296;-74
2024/01/28 03:14:55;;;;;;;34.00;19.25;;;2.70;99.90;;;;;;5096246;27;21078;-77
2024/01/28 03:17:22;;;;;;;38.08;18.92;;;2.70;99.90;;;;;;5093744;28;20244;-76
2024/01/28 03:19:49;;;;;;;26.92;16.25;;;2.60;99.90;;;;;;5093840;28;20260;-74
2024/01/28 03:22:16;;;;;;;39.25;18.35;;;2.70;99.90;;;;;;5089855;28;20280;-75
2024/01/28 03:24:43;;;;;;;26.70;18.58;;;2.60;99.90;;;;;;5090754;28;20203;-75
2024/01/28 03:27:10;;;;;;;38.20;19.02;;;2.70;99.90;;;;;;5096823;28;20257;-75
2024/01/28 03:29:37;;;;;;;25.17;18.42;;;2.70;99.90;;;;;;5091098;28;20202;-76
2024/01/28 03:32:06;;;;;;;26.92;17.80;;;2.60;99.90;;;;;;5101925;28;20218;-76
2024/01/28 03:34:33;;;;;;;39.50;20.25;;;2.60;99.90;;;;;;5089352;28;20276;-74
2024/01/28 03:37:00;;;;;;;31.50;15.45;;;2.60;99.90;;;;;;5096503;28;20252;-75
2024/01/28 03:39:28;;;;;;;23.48;19.23;;;2.60;99.90;;;;;;5096575;28;20216;-75
2024/01/28 03:41:55;;;;;;;35.15;19.27;;;2.60;99.90;;;;;;5097594;28;20282;-75
2024/01/28 03:44:23;;;;;;;32.17;21.27;;;2.50;99.90;;;;;;5096783;28;20199;-75
2024/01/28 03:46:51;;;;;;;30.90;15.65;;;2.50;99.90;;;;;;5093110;28;20213;-75
2024/01/28 03:49:19;;;;;;;28.80;19.50;;;2.50;99.90;;;;;;5104654;28;20794;-75
2024/01/28 03:51:46;;;;;;;28.92;19.00;;;2.50;99.90;;;;;;5099946;28;20198;-75
2024/01/28 03:54:13;;;;;;;32.38;19.23;;;2.50;99.90;;;;;;5091302;28;20685;-74
2024/01/28 03:56:41;;;;;;;39.60;20.05;;;2.40;99.90;;;;;;5106354;28;20270;-77
2024/01/28 03:59:08;;;;;;;28.38;17.45;;;2.50;99.90;;;;;;5090709;28;20229;-74
2024/01/28 04:01:35;;;;;;;22.67;15.25;;;2.50;99.90;;;;;;5101390;28;20665;-76
2024/01/28 04:04:02;;;;;;;33.90;20.10;;;2.50;99.90;;;;;;5091166;28;20199;-75
2024/01/28 04:06:31;;;;;;;28.67;20.08;;;2.50;99.90;;;;;;5096289;28;20981;-76
2024/01/28 04:08:58;;;;;;;31.13;17.85;;;2.30;99.90;;;;;;5094750;28;20211;-75
2024/01/28 04:11:26;;;;;;;29.50;19.92;;;2.40;99.90;;;;;;5095540;28;20280;-75
2024/01/28 04:13:55;;;;;;;26.60;18.25;;;2.30;99.90;;;;;;5095786;28;20222;-75
2024/01/28 04:16:22;;;;;;;28.58;18.40;;;2.30;99.90;;;;;;5087000;28;20249;-75
2024/01/28 04:18:51;;;;;;;25.67;17.00;;;2.30;99.90;;;;;;5091592;28;20203;-76
2024/01/28 04:21:18;;;;;;;31.00;18.40;;;2.30;99.90;;;;;;5099676;28;20198;-75
2024/01/28 04:23:47;;;;;;;27.83;18.42;;;2.30;99.90;;;;;;5090607;28;20214;-75
2024/01/28 04:26:14;;;;;;;27.73;16.45;;;2.20;99.90;;;;;;5086544;28;20219;-73
2024/01/28 04:28:41;;;;;;;34.72;18.25;;;2.30;99.90;;;;;;5086345;28;20198;-76
2024/01/28 04:31:08;;;;;;;33.95;19.40;;;2.30;99.90;;;;;;5084610;28;20298;-75
2024/01/28 04:33:35;;;;;;;25.58;16.48;;;2.40;99.90;;;;;;5083943;28;20222;-76
2024/01/28 04:36:02;;;;;;;31.02;16.48;;;2.20;99.90;;;;;;5082926;28;20694;-76
2024/01/28 04:38:30;;;;;;;31.83;18.98;;;2.30;99.90;;;;;;5084510;28;20200;-76
2024/01/28 04:40:58;;;;;;;19.45;15.43;;;2.30;99.90;;;;;;5083899;28;20206;-75
2024/01/28 04:43:25;;;;;;;26.27;18.02;;;2.20;99.90;;;;;;5079200;28;20237;-77
2024/01/28 04:45:53;;;;;;;29.70;17.50;;;2.20;99.90;;;;;;5082438;28;20245;-75
2024/01/28 04:48:20;;;;;;;31.48;16.10;;;2.20;99.90;;;;;;5082018;28;20203;-76
2024/01/28 04:50:47;;;;;;;19.02;15.57;;;2.10;99.90;;;;;;5093606;28;20248;-76
2024/01/28 04:53:15;;;;;;;26.80;16.13;;;2.10;99.90;;;;;;5087751;28;20279;-76
2024/01/28 04:55:43;;;;;;;23.85;16.60;;;2.10;99.90;;;;;;5079403;28;20207;-76
2024/01/28 04:58:11;;;;;;;29.27;16.20;;;2.20;99.90;;;;;;5080107;28;20203;-75
2024/01/28 05:00:38;;;;;;;28.13;14.82;;;2.10;99.90;;;;;;5075551;28;20642;-74
2024/01/28 05:03:05;;;;;;;22.80;16.02;;;2.10;99.90;;;;;;5082272;28;20265;-76
2024/01/28 05:05:32;;;;;;;22.98;15.77;;;2.00;99.90;;;;;;5091065;28;20202;-75
2024/01/28 05:07:59;;;;;;;23.20;13.20;;;2.00;99.90;;;;;;5079473;28;20261;-74
2024/01/28 05:10:27;;;;;;;31.48;14.63;;;2.00;99.90;;;;;;5086624;28;20746;-75
2024/01/28 05:12:54;;;;;;;27.42;14.35;;;2.10;99.90;;;;;;5074697;28;20284;-76
2024/01/28 05:15:22;;;;;;;25.50;15.88;;;2.10;99.90;;;;;;5087230;28;20227;-74
2024/01/28 05:17:50;;;;;;;19.02;14.35;;;2.10;99.90;;;;;;5080458;28;20203;-75
2024/01/28 05:20:17;;;;;;;23.45;14.35;;;2.10;99.90;;;;;;5082660;28;20720;-74
2024/01/28 05:22:44;;;;;;;26.05;15.38;;;2.10;99.90;;;;;;5087502;28;20230;-75
2024/01/28 05:25:11;;;;;;;22.45;12.52;;;2.10;99.90;;;;;;5077082;28;20203;-75
2024/01/28 05:27:38;;;;;;;27.55;13.77;;;2.10;99.90;;;;;;5076359;28;20257;-77
2024/01/28 05:30:06;;;;;;;28.20;13.85;;;2.10;99.90;;;;;;5087425;28;20209;-76
2024/01/28 05:32:35;;;;;;;21.63;11.70;;;2.10;99.90;;;;;;5076176;28;20806;-75
2024/01/28 05:35:03;;;;;;;26.08;11.60;;;2.10;99.90;;;;;;5073367;28;20223;-75
2024/01/28 05:37:31;;;;;;;22.67;12.30;;;2.10;99.90;;;;;;5075421;28;20614;-76
2024/01/28 05:39:58;;;;;;;21.02;11.82;;;2.10;99.90;;;;;;5081173;28;20203;-75
2024/01/28 05:42:25;;;;;;;27.45;10.63;;;2.10;99.90;;;;;;5091471;28;20583;-74
2024/01/28 05:44:52;;;;;;;27.80;11.65;;;2.20;99.90;;;;;;5078271;28;20199;-75
2024/01/28 05:47:19;;;;;;;26.05;11.40;;;2.10;99.90;;;;;;5081728;28;20566;-75
2024/01/28 05:49:47;;;;;;;26.23;10.45;;;2.10;99.90;;;;;;5078093;28;20211;-76
2024/01/28 05:52:14;;;;;;;24.60;11.30;;;2.10;99.90;;;;;;5081580;28;20234;-75
2024/01/28 05:54:41;;;;;;;27.35;10.30;;;2.00;99.90;;;;;;5073097;28;20273;-75
2024/01/28 05:57:09;;;;;;;20.88;9.13;;;2.10;99.90;;;;;;5075526;28;20207;-77
2024/01/28 05:59:36;;;;;;;30.92;11.05;;;2.10;99.90;;;;;;5075803;28;20946;-75
2024/01/28 06:02:04;;;;;;;28.38;10.43;;;2.10;99.90;;;;;;5079211;28;20226;-78
2024/01/28 06:04:31;;;;;;;26.98;10.63;;;2.10;99.90;;;;;;5081829;28;20196;-75
2024/01/28 06:07:00;;;;;;;18.63;10.50;;;2.10;99.90;;;;;;5074114;28;20208;-74
2024/01/28 06:09:27;;;;;;;13.93;9.88;;;2.00;99.90;;;;;;5079178;28;20678;-76
2024/01/28 06:11:54;;;;;;;19.27;9.75;;;2.00;99.90;;;;;;5076573;28;20231;-75
2024/01/28 06:14:21;;;;;;;22.50;9.85;;;2.00;99.90;;;;;;5073728;28;20298;-76
2024/01/28 06:16:48;;;;;;;17.92;10.60;;;2.00;99.90;;;;;;5075617;28;20207;-75
2024/01/28 06:19:15;;;;;;;19.67;9.35;;;2.00;99.90;;;;;;5074104;28;20268;-77
2024/01/28 06:21:42;;;;;;;17.13;8.50;;;2.00;99.90;;;;;;5089861;28;20235;-74
2024/01/28 06:24:10;;;;;;;26.58;11.02;;;2.00;99.90;;;;;;5087276;28;20607;-75
2024/01/28 06:26:39;;;;;;;14.32;9.65;;;2.00;99.90;;;;;;5073390;28;20200;-75
2024/01/28 06:29:06;;;;;;;13.57;8.45;;;2.10;99.90;;;;;;5077644;28;20333;-75
2024/01/28 06:31:33;;;;;;;19.58;10.43;;;2.20;99.90;;;;;;5077622;28;20744;-76
2024/01/28 06:34:00;;;;;;;22.92;9.50;;;2.10;99.90;;;;;;5073592;28;20268;-75
2024/01/28 06:36:27;;;;;;;13.77;9.57;;;2.10;99.90;;;;;;5087589;28;20232;-76
2024/01/28 06:38:54;;;;;;;17.77;8.68;;;2.00;99.90;;;;;;5077577;28;20203;-75
2024/01/28 06:41:23;;;;;;;25.13;11.18;;;2.00;99.90;;;;;;5085070;28;20206;-75
2024/01/28 06:43:50;;;;;;;19.20;12.50;;;2.00;99.90;;;;;;5076503;28;20275;-75
2024/01/28 06:46:19;;;;;;;14.85;8.45;;;1.90;99.90;;;;;;5086784;28;20207;-75
2024/01/28 06:48:47;;;;;;;15.07;8.70;;;1.90;99.90;;;;;;5080926;28;20209;-76
2024/01/28 06:51:14;;;;;;;17.80;9.20;;;2.00;99.90;;;;;;5083666;28;20207;-76
2024/01/28 06:53:41;;;;;;;14.63;9.05;;;2.00;99.90;;;;;;5090446;28;20218;-74
2024/01/28 06:56:08;;;;;;;28.25;10.00;;;2.00;99.90;;;;;;5078913;28;20280;-75
2024/01/28 06:58:37;;;;;;;19.05;8.80;;;1.90;99.90;;;;;;5080580;28;20199;-77
2024/01/28 07:01:04;;;;;;;14.48;9.50;;;1.90;99.90;;;;;;5080194;28;20638;-76
2024/01/28 07:03:31;;;;;;;16.58;8.77;;;1.90;99.90;;;;;;5084109;28;20237;-77
2024/01/28 07:05:58;;;;;;;22.48;9.15;;;1.90;99.90;;;;;;5081567;28;20211;-75
2024/01/28 07:08:25;;;;;;;14.38;8.77;;;1.90;99.90;;;;;;5074766;28;20203;-75
2024/01/28 07:10:52;;;;;;;17.30;9.35;;;1.90;99.90;;;;;;5073573;28;20594;-75
2024/01/28 07:13:19;;;;;;;14.77;9.38;;;1.90;99.90;;;;;;5077645;28;20574;-75
2024/01/28 07:15:46;;;;;;;19.40;8.93;;;1.90;99.90;;;;;;5075838;28;20702;-75
2024/01/28 07:18:14;;;;;;;17.88;9.90;;;2.00;99.90;;;;;;5077909;28;20207;-75
2024/01/28 07:20:40;;;;;;;21.02;10.40;;;2.00;99.90;;;;;;5079820;28;20217;-75
2024/01/28 07:23:07;;;;;;;12.05;8.60;;;2.10;99.90;;;;;;5088107;28;20286;-76
2024/01/28 07:25:34;;;;;;;25.17;10.32;;;2.00;99.90;;;;;;5083198;28;20207;-77
2024/01/28 07:28:03;;;;;;;20.05;7.93;;;2.10;99.90;;;;;;5072776;28;20699;-75
2024/01/28 07:30:31;;;;;;;18.95;9.30;;;2.10;99.90;;;;;;5081037;28;20228;-76
2024/01/28 07:32:59;;;;;;;24.17;9.35;;;2.20;99.90;;;;;;5081773;28;20272;-75
2024/01/28 07:35:26;;;;;;;14.70;8.05;;;2.10;99.90;;;;;;5080128;28;20219;-75
2024/01/28 07:37:53;;;;;;;14.20;11.50;;;2.10;99.90;;;;;;5075088;28;20233;-75
2024/01/28 07:40:20;;;;;;;25.25;9.90;;;2.20;99.90;;;;;;5074381;28;20728;-76
2024/01/28 07:42:47;;;;;;;11.88;8.57;;;2.30;99.90;;;;;;5085769;28;20300;-75
2024/01/28 07:45:15;;;;;;;14.48;8.95;;;2.30;99.90;;;;;;5083949;28;20203;-75
2024/01/28 07:47:42;;;;;;;20.27;9.73;;;2.40;99.90;;;;;;5075827;28;20260;-76
2024/01/28 07:50:11;;;;;;;11.70;8.38;;;2.40;99.90;;;;;;5081912;28;20740;-74
2024/01/28 07:52:38;;;;;;;15.27;7.88;;;2.50;99.90;;;;;;5072911;28;20227;-75
2024/01/28 07:55:06;;;;;;;15.60;7.38;;;2.60;99.90;;;;;;5074649;28;20219;-76
2024/01/28 07:57:33;;;;;;;17.75;8.10;;;2.60;99.90;;;;;;5072365;28;20214;-74
2024/01/28 08:00:00;;;;;;;17.10;8.07;;;2.70;99.90;;;;;;5083450;28;20199;-76
2024/01/28 08:02:27;;;;;;;10.93;8.20;;;2.80;99.90;;;;;;5082124;28;20218;-76
2024/01/28 08:04:54;;;;;;;18.80;7.22;;;2.90;99.90;;;;;;5076155;28;20230;-75
2024/01/28 08:07:23;;;;;;;19.73;8.25;;;3.00;99.90;;;;;;5076671;28;20245;-77
2024/01/28 08:09:50;;;;;;;19.83;7.15;;;3.10;99.90;;;;;;5088470;28;20264;-75
2024/01/28 08:12:18;;;;;;;11.82;6.43;;;3.40;99.90;;;;;;5085590;28;20227;-74
2024/01/28 08:14:45;;;;;;;11.40;6.35;;;3.80;99.90;;;;;;5083777;28;20698;-75
2024/01/28 08:17:12;;;;;;;9.73;6.38;;;4.40;99.90;;;;;;5087549;28;20203;-75
2024/01/28 08:19:40;;;;;;;12.43;5.28;;;5.00;99.90;;;;;;5078432;28;20259;-74
2024/01/28 08:22:07;;;;;;;16.60;6.75;;;5.80;99.90;;;;;;5084883;28;20228;-74
2024/01/28 08:24:35;;;;;;;12.07;6.28;;;6.30;99.90;;;;;;5091157;28;20195;-75
2024/01/28 08:27:02;;;;;;;12.65;5.60;;;7.00;99.90;;;;;;5080044;28;20207;-76
2024/01/28 08:29:29;;;;;;;13.15;5.35;;;7.50;99.90;;;;;;5078973;28;20222;-74
2024/01/28 08:31:57;;;;;;;16.80;6.70;;;8.60;99.90;;;;;;5085556;28;20219;-76
2024/01/28 08:34:24;;;;;;;11.13;5.32;;;9.20;99.90;;;;;;5079516;28;20227;-75
2024/01/28 08:36:51;;;;;;;10.65;4.60;;;9.90;99.90;;;;;;5086121;28;20200;-78
2024/01/28 08:39:18;;;;;;;13.02;5.72;;;10.50;99.90;;;;;;5090751;28;20625;-77
2024/01/28 08:41:47;;;;;;;10.93;5.13;;;11.10;98.70;;;;;;5086220;28;20210;-76
2024/01/28 08:44:15;;;;;;;10.27;5.72;;;11.10;97.10;;;;;;5090783;28;20730;-75
2024/01/28 08:46:41;;;;;;;13.80;5.60;;;11.10;96.60;;;;;;5076341;28;20649;-75
2024/01/28 08:49:10;;;;;;;12.65;5.85;;;11.00;96.60;;;;;;5085238;28;20248;-76
2024/01/28 08:51:37;;;;;;;11.32;5.10;;;11.40;96.00;;;;;;5083850;28;20260;-74
2024/01/28 08:54:05;;;;;;;15.02;5.32;;;11.50;95.60;;;;;;5085654;28;20207;-75
2024/01/28 08:56:32;;;;;;;12.68;5.63;;;11.80;95.30;;;;;;5082599;28;20223;-76
2024/01/28 08:59:01;;;;;;;8.20;5.32;;;11.70;97.50;;;;;;5083359;28;20203;-80
2024/01/28 09:01:28;;;;;;;10.10;7.07;;;11.90;98.10;;;;;;5076683;28;20203;-73
2024/01/28 09:04:05;;;;;;;10.15;5.50;;;11.90;96.90;;;;;;5081126;28;20269;-75
2024/01/28 09:06:32;;;;;;;12.35;6.22;;;11.50;95.80;;;;;;5074337;28;20203;-76
2024/01/28 09:09:00;;;;;;;11.65;5.50;;;11.80;95.90;;;;;;5089827;28;20287;-76
2024/01/28 09:11:27;;;;;;;20.80;5.20;;;12.20;95.20;;;;;;5078197;28;20282;-76
2024/01/28 09:13:54;;;;;;;14.90;5.72;;;12.50;94.50;;;;;;5076070;28;20223;-80
2024/01/28 09:16:22;;;;;;;10.93;5.28;;;12.80;95.10;;;;;;5082530;28;20588;-75
2024/01/28 09:18:49;;;;;;;15.98;5.57;;;13.10;94.00;;;;;;5075357;28;20206;-79
2024/01/28 09:21:16;;;;;;;11.98;5.75;;;13.20;92.20;;;;;;5075453;28;20207;-77
2024/01/28 09:23:43;;;;;;;10.30;6.43;;;12.50;91.80;;;;;;5078851;28;20223;-77
2024/01/28 09:26:10;;;;;;;17.65;6.60;;;12.60;92.40;;;;;;5076479;28;20192;-74
2024/01/28 09:28:38;;;;;;;9.67;6.40;;;12.60;92.20;;;;;;5076267;28;20207;-77
2024/01/28 09:31:08;;;;;;;12.15;5.90;;;12.40;91.80;;;;;;5083547;28;20450;-76
2024/01/28 09:33:36;;;;;;;11.85;6.28;;;12.80;92.10;;;;;;5073846;28;20304;-77
2024/01/28 09:36:03;;;;;;;10.63;6.03;;;12.90;92.10;;;;;;5079337;28;20265;-75
2024/01/28 09:38:30;;;;;;;9.88;6.20;;;12.90;91.70;;;;;;5084269;28;20231;-78
2024/01/28 09:41:04;;;;;;;14.50;5.88;;;12.90;91.70;;;;;;5080890;28;20677;-79
2024/01/28 09:43:32;;;;;;;9.18;6.40;;;12.80;92.00;;;;;;5076964;28;20218;-78
2024/01/28 09:45:59;;;;;;;10.68;5.70;;;13.00;91.60;;;;;;5085927;28;20605;-76
2024/01/28 09:48:27;;;;;;;11.00;6.18;;;13.00;91.40;;;;;;5077699;28;20213;-76
2024/01/28 09:50:55;;;;;;;13.05;6.22;;;12.60;91.20;;;;;;5086070;28;20252;-77
2024/01/28 09:53:22;;;;;;;12.00;4.95;;;12.70;91.30;;;;;;5079332;28;20304;-75
2024/01/28 09:55:49;;;;;;;15.55;5.80;;;13.00;91.20;;;;;;5077527;28;20218;-75
2024/01/28 09:58:19;;;;;;;13.15;5.40;;;13.00;91.10;;;;;;5083055;28;20645;-73
2024/01/28 10:00:47;;;;;;;12.43;5.00;;;12.90;91.00;;;;;;5078298;28;20208;-76
2024/01/28 10:03:14;;;;;;;12.95;5.60;;;12.90;91.20;;;;;;5073653;28;20281;-75
2024/01/28 10:05:41;;;;;;;11.40;5.00;;;12.60;91.40;;;;;;5075428;28;20202;-75
2024/01/28 10:08:09;;;;;;;10.98;5.70;;;12.90;91.30;;;;;;5076061;28;20258;-77
2024/01/28 10:10:37;;;;;;;9.03;4.20;;;13.20;91.10;;;;;;5080296;28;20195;-74
2024/01/28 10:13:04;;;;;;;11.75;5.68;;;13.40;90.90;;;;;;5075900;28;20477;-76
2024/01/28 10:15:31;;;;;;;18.33;6.72;;;13.00;90.60;;;;;;5072632;28;20246;-74
2024/01/28 10:17:58;;;;;;;9.73;5.25;;;12.70;91.40;;;;;;5073067;28;20210;-75
2024/01/28 10:20:28;;;;;;;11.15;6.53;;;12.20;91.10;;;;;;5088156;28;20244;-72
2024/01/28 10:22:55;;;;;;;6.88;5.68;;;12.20;91.90;;;;;;5072321;28;20227;-73
2024/01/28 10:25:23;;;;;;;12.25;5.53;;;12.20;92.10;;;;;;5084397;28;20200;-74
2024/01/28 10:27:51;;;;;;;8.30;5.97;;;12.10;92.40;;;;;;5075221;28;20195;-74
2024/01/28 10:30:19;;;;;;;9.27;5.25;;;11.70;92.50;;;;;;5081116;28;20666;-73
2024/01/28 10:36:10;;;;;;;21.98;6.32;;;10.90;93.40;;;;;;5080788;28;20707;-75
2024/01/28 10:38:43;;;;;;;20.42;5.78;;;10.60;93.60;;;;;;5086985;28;20599;-78
2024/01/28 10:41:16;;;;;;;9.25;5.55;;;10.20;93.90;;;;;;5079199;28;20195;-75
2024/01/28 10:43:57;;;;;;;9.82;5.03;;;10.00;95.10;;;;;;5082495;28;20672;-75
2024/01/28 10:46:32;;;;;;;13.60;5.20;;;9.80;95.50;;;;;;5072505;28;20217;-75
2024/01/28 10:49:04;;;;;;;7.78;4.70;;;10.00;95.40;;;;;;5080222;28;20296;-75
2024/01/28 10:51:34;;;;;;;11.50;5.68;;;10.00;95.20;;;;;;5085363;28;20314;-76
2024/01/28 10:54:03;;;;;;;10.35;6.38;;;10.00;95.50;;;;;;5079086;28;20208;-75
2024/01/28 10:56:32;;;;;;;12.73;6.63;;;9.70;96.10;;;;;;5075420;28;20240;-77
2024/01/28 10:58:59;;;;;;;10.70;5.45;;;9.50;96.50;;;;;;5082382;28;20669;-78
2024/01/28 11:01:27;;;;;;;9.82;5.28;;;9.20;96.90;;;;;;5072511;28;20276;-76
2024/01/28 11:03:56;;;;;;;9.70;5.60;;;9.10;97.40;;;;;;5082027;28;20230;-77
2024/01/28 11:06:26;;;;;;;9.82;4.47;;;8.70;97.60;;;;;;5072536;28;20195;-78
2024/01/28 11:08:54;;;;;;;7.63;4.78;;;8.40;98.20;;;;;;5081934;28;20605;-76
2024/01/28 11:11:21;;;;;;;8.75;4.75;;;8.40;98.80;;;;;;5082866;28;20209;-78
2024/01/28 11:13:50;;;;;;;9.00;5.18;;;8.40;98.70;;;;;;5078807;28;20314;-75
2024/01/28 11:16:19;;;;;;;13.95;5.78;;;8.30;99.00;;;;;;5078682;28;20225;-74
2024/01/28 11:18:57;;;;;;;13.30;5.95;;;8.30;99.40;;;;;;5091741;28;20268;-75
2024/01/28 11:21:25;;;;;;;10.23;6.00;;;8.20;99.50;;;;;;5078803;28;20233;-74
2024/01/28 11:23:55;;;;;;;6.72;4.93;;;8.00;99.70;;;;;;5076460;28;20235;-74
2024/01/28 11:26:26;;;;;;;10.52;5.32;;;8.00;99.90;;;;;;5072875;28;20195;-76
2024/01/28 11:28:56;;;;;;;8.00;4.45;;;8.10;99.90;;;;;;5072036;28;20205;-74
2024/01/28 11:31:30;;;;;;;13.13;4.57;;;7.90;99.70;;;;;;5080191;28;20261;-74
2024/01/28 11:34:07;;;;;;;8.90;6.15;;;7.80;99.90;;;;;;5074515;28;20260;-76
2024/01/28 11:36:37;;;;;;;9.02;5.13;;;7.80;99.90;;;;;;5073994;28;20250;-76
2024/01/28 11:39:06;;;;;;;8.05;4.63;;;7.70;99.90;;;;;;5085748;28;20210;-77
2024/01/28 11:41:38;;;;;;;11.90;6.72;;;7.70;99.90;;;;;;5086667;28;20203;-76
2024/01/28 11:44:08;;;;;;;9.38;6.22;;;7.80;99.90;;;;;;5093488;28;20234;-77
2024/01/28 11:46:36;;;;;;;10.95;4.45;;;7.60;99.90;;;;;;5076001;28;20199;-72
2024/01/28 11:49:03;;;;;;;8.55;4.40;;;7.60;99.90;;;;;;5080283;28;20655;-75
2024/01/28 11:51:32;;;;;;;10.02;4.35;;;7.60;99.90;;;;;;5084107;28;20195;-75
2024/01/28 11:54:00;;;;;;;8.95;5.07;;;7.50;99.90;;;;;;5076489;28;20245;-75
2024/01/28 11:56:29;;;;;;;13.43;5.78;;;7.50;99.90;;;;;;5083156;28;20306;-74
2024/01/28 11:58:56;;;;;;;15.25;5.53;;;7.50;99.90;;;;;;5076165;28;20712;-77
2024/01/28 12:01:25;;;;;;;12.75;5.32;;;7.50;99.90;;;;;;5083699;28;20194;-75
2024/01/28 12:03:54;;;;;;;6.18;4.32;;;7.60;99.90;;;;;;5081484;28;20234;-75
2024/01/28 12:06:22;;;;;;;8.05;5.20;;;7.60;99.90;;;;;;5082461;28;20725;-75
2024/01/28 12:08:50;;;;;;;7.40;4.25;;;7.60;99.90;;;;;;5075464;28;20307;-76
2024/01/28 12:11:19;;;;;;;9.73;5.15;;;7.60;99.90;;;;;;5088760;28;20207;-76
2024/01/28 12:13:46;;;;;;;12.30;5.45;;;7.50;99.90;;;;;;5076162;28;20634;-75
2024/01/28 12:16:13;;;;;;;13.80;4.90;;;7.60;99.90;;;;;;5076829;28;20227;-76
2024/01/28 12:18:42;;;;;;;13.82;6.50;;;7.60;99.90;;;;;;5076173;28;20621;-76
2024/01/28 12:21:18;;;;;;;11.95;4.65;;;7.60;99.90;;;;;;5079471;28;20264;-76
2024/01/28 12:23:46;;;;;;;12.75;6.82;;;7.70;99.90;;;;;;5079166;28;20306;-73
2024/01/28 12:26:15;;;;;;;11.75;5.25;;;7.70;99.90;;;;;;5076658;28;20191;-75
2024/01/28 12:28:43;;;;;;;12.18;4.47;;;7.70;99.90;;;;;;5078155;28;20238;-72
2024/01/28 12:31:10;;;;;;;6.85;4.90;;;7.60;99.90;;;;;;5079913;28;20227;-72
2024/01/28 12:33:37;;;;;;;8.73;4.05;;;7.70;99.90;;;;;;5078437;28;20223;-74
2024/01/28 12:36:07;;;;;;;9.27;5.05;;;7.60;99.90;;;;;;5081583;28;20215;-71
2024/01/28 12:38:34;;;;;;;9.98;5.63;;;7.70;99.90;;;;;;5078432;28;20231;-73
2024/01/28 12:41:01;;;;;;;4.68;4.15;;;7.80;99.90;;;;;;5079790;28;20593;-76
2024/01/28 12:43:28;;;;;;;7.32;3.83;;;7.80;99.90;;;;;;5076634;28;20284;-75
2024/01/28 12:45:55;;;;;;;6.93;3.63;;;7.80;99.90;;;;;;5073759;28;20199;-74